createdAt,value
2019-01-25T00:01:43.094Z,101475.09
2019-01-25T00:04:13.214Z,101472.45
2019-01-25T00:06:43.409Z,101471.51
2019-01-25T00:09:13.608Z,101473.68
2019-01-25T00:11:43.728Z,101473.25
2019-01-25T00:14:13.842Z,101466.70
2019-01-25T00:16:43.974Z,101461.47
2019-01-25T00:19:14.129Z,101466.27
2019-01-25T00:21:44.274Z,101467.11
2019-01-25T00:24:14.374Z,101468.30
2019-01-25T00:26:44.508Z,101467.87
2019-01-25T00:29:14.638Z,101468.75
2019-01-25T00:31:44.784Z,101466.58
2019-01-25T00:34:14.905Z,101436.81
2019-01-25T00:36:45.039Z,101463.95
2019-01-25T00:39:15.164Z,101464.88
2019-01-25T00:41:45.315Z,101456.10
2019-01-25T00:44:15.413Z,101458.77
2019-01-25T00:46:45.548Z,101456.14
2019-01-25T00:49:15.673Z,101454.87
2019-01-25T00:51:45.791Z,101458.80
2019-01-25T00:54:15.911Z,101454.87
2019-01-25T00:56:46.114Z,101447.89
2019-01-25T00:59:16.295Z,101447.00
2019-01-25T01:01:46.474Z,101444.38
2019-01-25T01:04:16.593Z,101443.50
2019-01-25T01:06:46.730Z,101444.38
2019-01-25T01:09:16.863Z,101445.70
2019-01-25T01:11:46.981Z,101440.45
2019-01-25T01:14:18.073Z,101437.84
2019-01-25T01:16:48.948Z,101436.53
2019-01-25T01:19:19.077Z,101434.79
2019-01-25T01:21:49.224Z,101435.69
2019-01-25T01:24:19.336Z,101446.16
2019-01-25T01:26:49.499Z,101444.84
2019-01-25T01:29:19.657Z,101448.33
2019-01-25T01:31:49.774Z,101440.92
2019-01-25T01:34:19.895Z,101440.47
2019-01-25T01:36:50.053Z,101436.52
2019-01-25T01:39:20.169Z,101436.52
2019-01-25T01:41:50.290Z,101431.27
2019-01-25T01:44:20.431Z,101424.63
2019-01-25T01:46:50.561Z,101424.20
2019-01-25T01:49:20.679Z,101430.25
2019-01-25T01:51:50.824Z,101421.50
2019-01-25T01:54:20.937Z,101421.76
2019-01-25T01:56:51.064Z,101420.03
2019-01-25T01:59:21.344Z,101414.00
2019-01-25T02:01:51.522Z,101413.97
2019-01-25T02:04:21.674Z,101411.33
2019-01-25T02:06:51.825Z,101413.94
2019-01-25T02:09:21.922Z,101412.67
2019-01-25T02:11:52.080Z,101407.95
2019-01-25T02:14:22.197Z,101407.09
2019-01-25T02:16:52.405Z,101403.63
2019-01-25T02:19:22.551Z,101404.52
2019-01-25T02:21:52.706Z,101398.86
2019-01-25T02:24:22.807Z,101396.25
2019-01-25T02:26:52.948Z,101385.77
2019-01-25T02:29:23.064Z,101394.04
2019-01-25T02:31:53.179Z,101391.85
2019-01-25T02:34:23.293Z,101392.28
2019-01-25T02:36:53.450Z,101379.20
2019-01-25T02:39:23.583Z,101385.74
2019-01-25T02:41:53.691Z,101383.12
2019-01-25T02:44:23.882Z,101377.92
2019-01-25T02:46:53.996Z,101374.05
2019-01-25T02:49:24.120Z,101374.88
2019-01-25T02:51:54.246Z,101375.76
2019-01-25T02:54:24.383Z,101370.15
2019-01-25T02:56:54.502Z,101365.28
2019-01-25T02:59:24.657Z,101360.91
2019-01-25T03:01:54.848Z,101367.53
2019-01-25T03:04:24.993Z,101362.30
2019-01-25T03:06:55.241Z,101363.63
2019-01-25T03:09:25.383Z,101362.76
2019-01-25T03:11:55.513Z,101356.25
2019-01-25T03:14:26.586Z,101357.58
2019-01-25T03:16:56.697Z,101358.45
2019-01-25T03:19:26.828Z,101356.74
2019-01-25T03:21:56.952Z,101348.41
2019-01-25T03:24:27.093Z,101350.16
2019-01-25T03:26:57.204Z,101352.78
2019-01-25T03:29:27.321Z,101343.63
2019-01-25T03:31:57.465Z,101341.44
2019-01-25T03:34:27.696Z,101335.32
2019-01-25T03:36:57.809Z,101335.33
2019-01-25T03:39:27.932Z,101341.45
2019-01-25T03:41:58.055Z,101333.58
2019-01-25T03:44:28.209Z,101332.70
2019-01-25T03:46:58.324Z,101330.08
2019-01-25T03:49:28.474Z,101327.86
2019-01-25T03:51:58.598Z,101323.09
2019-01-25T03:54:28.756Z,101322.65
2019-01-25T03:56:58.959Z,101316.52
2019-01-25T03:59:29.085Z,101320.89
2019-01-25T04:01:59.378Z,101324.39
2019-01-25T04:04:29.513Z,101324.39
2019-01-25T04:06:59.617Z,101316.52
2019-01-25T04:09:29.756Z,101319.58
2019-01-25T04:11:59.880Z,101324.39
2019-01-25T04:14:30.008Z,101331.81
2019-01-25T04:17:00.191Z,101321.33
2019-01-25T04:19:30.336Z,101325.25
2019-01-25T04:22:00.539Z,101295.11
2019-01-25T04:24:30.647Z,101317.82
2019-01-25T04:27:02.588Z,101318.28
2019-01-25T04:29:32.716Z,101321.78
2019-01-25T04:32:02.826Z,101313.89
2019-01-25T04:34:32.981Z,101320.89
2019-01-25T04:37:03.096Z,101317.38
2019-01-25T04:39:33.251Z,101322.18
2019-01-25T04:42:03.370Z,101315.16
2019-01-25T04:44:33.494Z,101323.05
2019-01-25T04:47:03.663Z,101318.66
2019-01-25T04:49:36.895Z,101322.16
2019-01-25T04:52:13.429Z,101319.50
2019-01-25T04:54:43.594Z,101316.43
2019-01-25T04:57:13.769Z,101310.73
2019-01-25T04:59:43.948Z,101317.72
2019-01-25T05:02:14.230Z,101312.02
2019-01-25T05:04:44.382Z,101305.02
2019-01-25T05:07:14.515Z,101307.63
2019-01-25T05:09:44.652Z,101304.12
2019-01-25T05:12:14.780Z,101301.91
2019-01-25T05:14:44.949Z,101305.41
2019-01-25T05:17:15.061Z,101300.57
2019-01-25T05:19:45.184Z,101293.97
2019-01-25T05:22:15.302Z,101288.73
2019-01-25T05:24:45.446Z,101295.71
2019-01-25T05:27:15.542Z,101291.36
2019-01-25T05:29:51.257Z,101282.60
2019-01-25T05:32:21.377Z,101275.64
2019-01-25T05:34:51.514Z,101275.64
2019-01-25T05:37:21.633Z,101275.23
2019-01-25T05:39:51.767Z,101275.23
2019-01-25T05:42:21.885Z,101273.93
2019-01-25T05:44:52.073Z,101272.16
2019-01-25T05:47:23.764Z,101273.04
2019-01-25T05:49:53.937Z,101272.17
2019-01-25T05:52:24.061Z,101271.30
2019-01-25T05:54:55.276Z,101274.83
2019-01-25T05:57:25.813Z,101270.44
2019-01-25T05:59:55.968Z,101270.89
2019-01-25T06:02:27.962Z,101272.20
2019-01-25T06:04:58.182Z,101264.77
2019-01-25T06:07:29.339Z,101273.09
2019-01-25T06:09:59.613Z,101275.27
2019-01-25T06:12:29.775Z,101274.84
2019-01-25T06:14:59.956Z,101270.44
2019-01-25T06:17:30.271Z,101265.60
2019-01-25T06:20:00.484Z,101266.47
2019-01-25T06:22:30.693Z,101263.42
2019-01-25T06:25:00.842Z,101261.20
2019-01-25T06:27:37.133Z,101262.50
2019-01-25T06:30:12.528Z,101257.66
2019-01-25T06:32:42.646Z,101255.45
2019-01-25T06:35:12.897Z,101256.31
2019-01-25T06:37:44.669Z,101251.92
2019-01-25T06:40:15.077Z,101251.04
2019-01-25T06:42:46.810Z,101249.27
2019-01-25T06:45:16.956Z,101243.53
2019-01-25T06:47:48.180Z,101240.84
2019-01-25T06:50:18.398Z,101243.44
2019-01-25T06:52:48.854Z,101239.92
2019-01-25T06:55:21.934Z,101236.40
2019-01-25T06:58:01.950Z,101235.95
2019-01-25T07:00:34.469Z,101235.94
2019-01-25T07:03:04.711Z,100992.10
2019-01-25T07:05:34.856Z,101226.26
2019-01-25T07:08:04.987Z,101226.23
2019-01-25T07:10:35.430Z,101231.03
2019-01-25T07:13:05.667Z,101233.25
2019-01-25T07:15:35.790Z,101231.98
2019-01-25T07:18:05.895Z,101236.80
2019-01-25T07:20:41.819Z,101233.78
2019-01-25T07:23:13.005Z,101237.83
2019-01-25T07:25:43.116Z,101233.02
2019-01-25T07:28:13.224Z,101237.35
2019-01-25T07:30:43.455Z,101235.20
2019-01-25T07:33:13.647Z,101229.05
2019-01-25T07:35:43.844Z,101227.31
2019-01-25T07:38:13.910Z,101230.36
2019-01-25T07:40:44.027Z,101232.07
2019-01-25T07:43:14.142Z,101232.05
2019-01-25T07:45:44.401Z,101226.89
2019-01-25T07:48:14.612Z,101230.80
2019-01-25T07:50:44.770Z,101227.28
2019-01-25T07:53:14.882Z,101222.42
2019-01-25T07:55:45.042Z,101222.38
2019-01-25T07:58:15.202Z,101227.64
2019-01-25T08:00:45.762Z,101217.55
2019-01-25T08:03:15.914Z,101214.44
2019-01-25T08:05:46.139Z,101210.02
2019-01-25T08:08:17.355Z,101210.84
2019-01-25T08:10:47.488Z,101211.25
2019-01-25T08:13:18.442Z,101211.20
2019-01-25T08:15:48.661Z,101206.42
2019-01-25T08:18:18.860Z,101210.37
2019-01-25T08:20:49.056Z,101210.75
2019-01-25T08:23:19.151Z,101213.77
2019-01-25T08:25:49.295Z,101220.37
2019-01-25T08:28:19.402Z,101214.23
2019-01-25T08:30:49.625Z,101212.91
2019-01-25T08:33:19.738Z,101210.27
2019-01-25T08:35:49.997Z,101207.58
2019-01-25T08:38:20.118Z,101206.61
2019-01-25T08:40:50.257Z,101203.00
2019-01-25T08:43:20.428Z,101194.20
2019-01-25T08:45:50.577Z,101191.08
2019-01-25T08:48:20.742Z,101189.74
2019-01-25T08:50:50.929Z,101188.39
2019-01-25T08:53:21.130Z,101197.17
2019-01-25T08:55:51.286Z,101199.06
2019-01-25T08:58:21.385Z,101195.14
2019-01-25T09:00:51.904Z,101196.00
2019-01-25T09:03:22.261Z,101196.89
2019-01-25T09:05:52.400Z,101191.62
2019-01-25T09:08:22.533Z,101195.90
2019-01-25T09:10:52.684Z,101187.89
2019-01-25T09:13:22.798Z,101185.17
2019-01-25T09:15:52.956Z,101182.03
2019-01-25T09:18:23.130Z,101178.00
2019-01-25T09:20:53.280Z,101179.23
2019-01-25T09:23:23.393Z,101179.17
2019-01-25T09:26:00.761Z,101171.66
2019-01-25T09:28:26.428Z,101172.95
2019-01-25T09:30:56.794Z,101177.35
2019-01-25T09:33:26.903Z,101170.89
2019-01-25T09:35:57.085Z,101168.23
2019-01-25T09:38:27.201Z,101167.34
2019-01-25T09:40:57.361Z,101167.85
2019-01-25T09:43:28.201Z,101163.92
2019-01-25T09:45:58.378Z,101156.06
2019-01-25T09:48:28.492Z,101159.97
2019-01-25T09:50:58.639Z,101158.51
2019-01-25T09:53:28.777Z,101154.06
2019-01-25T09:55:58.984Z,101147.81
2019-01-25T09:58:29.087Z,101147.83
2019-01-25T10:01:05.996Z,101150.38
2019-01-25T10:03:36.108Z,101140.52
2019-01-25T10:06:06.273Z,101144.34
2019-01-25T10:08:36.402Z,101140.25
2019-01-25T10:11:06.670Z,101139.70
2019-01-25T10:13:36.777Z,101138.36
2019-01-25T10:16:07.994Z,101133.13
2019-01-25T10:18:38.109Z,101131.66
2019-01-25T10:21:08.232Z,101128.87
2019-01-25T10:23:39.314Z,101125.23
2019-01-25T10:26:09.485Z,101119.54
2019-01-25T10:28:39.584Z,101118.48
2019-01-25T10:31:10.101Z,101110.93
2019-01-25T10:33:40.324Z,101106.83
2019-01-25T10:36:10.450Z,101107.92
2019-01-25T10:38:40.568Z,101100.77
2019-01-25T10:41:10.675Z,101095.86
2019-01-25T10:43:40.798Z,101091.95
2019-01-25T10:46:10.929Z,101102.20
2019-01-25T10:48:41.040Z,101088.05
2019-01-25T10:51:11.193Z,101089.80
2019-01-25T10:53:41.336Z,101081.04
2019-01-25T10:56:11.479Z,101082.33
2019-01-25T10:58:41.597Z,101074.81
2019-01-25T11:01:11.744Z,101069.90
2019-01-25T11:03:41.937Z,101070.69
2019-01-25T11:06:12.081Z,101064.98
2019-01-25T11:08:42.196Z,101068.53
2019-01-25T11:11:12.316Z,101068.30
2019-01-25T11:13:42.444Z,101073.94
2019-01-25T11:16:12.575Z,101070.44
2019-01-25T11:18:42.685Z,101063.36
2019-01-25T11:21:12.825Z,101060.51
2019-01-25T11:23:42.940Z,101060.36
2019-01-25T11:26:13.080Z,101058.04
2019-01-25T11:28:43.194Z,101057.63
2019-01-25T11:31:13.427Z,101057.69
2019-01-25T11:33:43.535Z,101055.47
2019-01-25T11:36:13.667Z,101055.86
2019-01-25T11:38:43.797Z,101050.76
2019-01-25T11:41:13.906Z,101045.16
2019-01-25T11:43:44.016Z,101040.77
2019-01-25T11:46:14.154Z,101037.23
2019-01-25T11:48:44.269Z,101033.22
2019-01-25T11:51:14.364Z,101024.61
2019-01-25T11:53:44.473Z,101027.37
2019-01-25T11:56:14.662Z,101022.84
2019-01-25T11:58:44.762Z,101017.55
2019-01-25T12:01:14.905Z,101014.64
2019-01-25T12:03:45.201Z,101017.38
2019-01-25T12:06:15.338Z,101014.30
2019-01-25T12:08:45.461Z,101013.30
2019-01-25T12:11:15.598Z,101009.24
2019-01-25T12:13:45.707Z,100999.23
2019-01-25T12:16:15.826Z,101001.96
2019-01-25T12:18:45.942Z,101001.93
2019-01-25T12:21:16.043Z,100996.13
2019-01-25T12:23:46.251Z,100994.95
2019-01-25T12:26:16.392Z,100991.30
2019-01-25T12:28:46.502Z,100986.51
2019-01-25T12:31:16.762Z,100985.12
2019-01-25T12:33:46.861Z,100982.58
2019-01-25T12:36:16.979Z,100979.11
2019-01-25T12:38:47.096Z,100973.72
2019-01-25T12:41:17.203Z,100973.92
2019-01-25T12:43:47.323Z,100972.15
2019-01-25T12:46:17.419Z,100968.04
2019-01-25T12:48:47.544Z,100964.53
2019-01-25T12:51:48.181Z,100955.81
2019-01-25T12:54:18.286Z,100962.94
2019-01-25T12:56:48.502Z,100961.23
2019-01-25T12:59:18.617Z,100957.67
2019-01-25T13:01:50.452Z,100946.77
2019-01-25T13:04:20.750Z,100941.45
2019-01-25T13:06:50.849Z,100946.72
2019-01-25T13:09:20.956Z,100944.53
2019-01-25T13:11:51.134Z,100939.45
2019-01-25T13:14:22.168Z,100931.27
2019-01-25T13:16:53.263Z,100921.58
2019-01-25T13:19:23.391Z,100931.30
2019-01-25T13:21:53.625Z,100934.14
2019-01-25T13:24:23.885Z,100923.20
2019-01-25T13:26:54.234Z,100918.19
2019-01-25T13:29:26.491Z,100915.45
2019-01-25T13:31:57.049Z,100910.02
2019-01-25T13:34:27.228Z,100908.14
2019-01-25T13:36:57.434Z,100904.15
2019-01-25T13:39:27.649Z,100895.27
2019-01-25T13:41:58.595Z,100898.67
2019-01-25T13:44:30.362Z,100895.44
2019-01-25T13:47:01.489Z,100886.62
2019-01-25T13:49:31.650Z,100889.19
2019-01-25T13:52:01.788Z,100887.11
2019-01-25T13:54:33.560Z,100887.80
2019-01-25T13:57:03.676Z,100882.79
2019-01-25T13:59:33.873Z,100883.01
2019-01-25T14:02:04.172Z,100870.61
2019-01-25T14:04:34.434Z,100867.94
2019-01-25T14:07:05.006Z,100872.17
2019-01-25T14:09:35.818Z,100871.16
2019-01-25T14:12:05.971Z,100866.52
2019-01-25T14:14:36.096Z,100862.80
2019-01-25T14:17:06.446Z,100867.63
2019-01-25T14:19:36.564Z,100862.87
2019-01-25T14:22:06.710Z,100858.94
2019-01-25T14:24:36.836Z,100857.14
2019-01-25T14:27:07.049Z,100851.09
2019-01-25T14:29:37.161Z,100854.67
2019-01-25T14:32:08.190Z,100851.24
2019-01-25T14:34:38.364Z,100848.19
2019-01-25T14:37:08.461Z,100844.92
2019-01-25T14:39:38.566Z,100844.36
2019-01-25T14:42:08.671Z,100843.45
2019-01-25T14:44:38.784Z,100837.80
2019-01-25T14:47:08.901Z,100838.39
2019-01-25T14:49:40.108Z,100843.08
2019-01-25T14:52:10.197Z,100836.44
2019-01-25T14:54:40.350Z,100837.34
2019-01-25T14:57:10.471Z,100828.52
2019-01-25T14:59:40.594Z,100830.67
2019-01-25T15:02:10.751Z,100829.77
2019-01-25T15:04:40.891Z,100823.24
2019-01-25T15:07:11.016Z,100818.88
2019-01-25T15:09:41.152Z,100824.71
2019-01-25T15:12:11.464Z,100822.02
2019-01-25T15:14:41.652Z,100818.38
2019-01-25T15:17:11.774Z,100820.25
2019-01-25T15:19:41.927Z,100815.81
2019-01-25T15:22:12.038Z,100814.49
2019-01-25T15:24:42.219Z,100813.03
2019-01-25T15:27:12.386Z,100807.06
2019-01-25T15:29:42.588Z,100801.83
2019-01-25T15:32:12.694Z,100800.41
2019-01-25T15:34:42.812Z,100798.22
2019-01-25T15:37:12.928Z,100798.63
2019-01-25T15:39:43.081Z,100793.66
2019-01-25T15:42:13.194Z,100801.92
2019-01-25T15:44:43.325Z,100792.28
2019-01-25T15:47:13.435Z,100800.08
2019-01-25T15:49:43.562Z,100794.05
2019-01-25T15:52:13.680Z,100791.79
2019-01-25T15:54:43.819Z,100789.56
2019-01-25T15:57:13.926Z,100789.71
2019-01-25T15:59:45.689Z,100780.97
2019-01-25T16:02:16.307Z,100778.30
2019-01-25T16:04:46.471Z,100784.50
2019-01-25T16:07:16.576Z,100777.53
2019-01-25T16:09:46.699Z,100775.34
2019-01-25T16:12:16.819Z,100775.34
2019-01-25T16:14:46.971Z,100774.93
2019-01-25T16:17:17.101Z,100772.78
2019-01-25T16:19:47.238Z,100766.30
2019-01-25T16:22:17.365Z,100775.52
2019-01-25T16:24:47.483Z,100771.05
2019-01-25T16:27:18.388Z,100763.52
2019-01-25T16:29:48.593Z,100758.66
2019-01-25T16:32:18.719Z,100759.94
2019-01-25T16:34:48.911Z,100756.40
2019-01-25T16:37:19.034Z,100756.40
2019-01-25T16:39:49.162Z,100753.72
2019-01-25T16:42:19.288Z,100747.09
2019-01-25T16:44:49.428Z,100745.36
2019-01-25T16:47:19.569Z,100741.44
2019-01-25T16:49:49.715Z,100741.48
2019-01-25T16:52:19.824Z,100729.16
2019-01-25T16:54:49.949Z,100727.42
2019-01-25T16:57:20.056Z,100726.21
2019-01-25T16:59:50.191Z,100720.94
2019-01-25T17:02:20.313Z,100717.09
2019-01-25T17:04:50.466Z,100717.45
2019-01-25T17:07:20.654Z,100717.95
2019-01-25T17:09:50.770Z,100720.16
2019-01-25T17:12:20.892Z,100718.28
2019-01-25T17:14:51.042Z,100715.16
2019-01-25T17:17:21.195Z,100713.88
2019-01-25T17:19:51.362Z,100712.42
2019-01-25T17:22:21.479Z,100707.48
2019-01-25T17:24:51.662Z,100703.12
2019-01-25T17:27:21.772Z,100704.44
2019-01-25T17:29:51.903Z,100700.11
2019-01-25T17:32:22.066Z,100693.47
2019-01-25T17:34:52.192Z,100696.90
2019-01-25T17:37:22.672Z,100694.64
2019-01-25T17:39:52.892Z,100693.66
2019-01-25T17:42:23.035Z,100684.73
2019-01-25T17:44:53.162Z,100683.27
2019-01-25T17:47:23.312Z,100684.02
2019-01-25T17:49:53.427Z,100679.72
2019-01-25T17:52:23.554Z,100679.19
2019-01-25T17:54:53.659Z,100674.78
2019-01-25T17:57:25.437Z,100673.45
2019-01-25T17:59:55.738Z,100665.88
2019-01-25T18:02:25.898Z,100662.05
2019-01-25T18:04:56.053Z,100659.36
2019-01-25T18:07:26.182Z,100655.28
2019-01-25T18:09:56.728Z,100660.03
2019-01-25T18:12:26.910Z,100646.99
2019-01-25T18:14:57.017Z,100649.71
2019-01-25T18:17:27.865Z,100646.30
2019-01-25T18:19:57.971Z,100643.06
2019-01-25T18:22:28.196Z,100636.83
2019-01-25T18:24:58.307Z,100632.95
2019-01-25T18:27:28.701Z,100631.55
2019-01-25T18:30:00.662Z,100624.50
2019-01-25T18:32:30.764Z,100622.28
2019-01-25T18:35:00.904Z,100620.14
2019-01-25T18:37:31.098Z,100610.46
2019-01-25T18:40:01.265Z,100612.23
2019-01-25T18:42:31.401Z,100608.68
2019-01-25T18:45:01.573Z,100610.79
2019-01-25T18:47:31.847Z,100597.11
2019-01-25T18:50:02.023Z,100594.84
2019-01-25T18:52:32.147Z,100597.36
2019-01-25T18:55:03.306Z,100594.28
2019-01-25T18:57:34.143Z,100595.52
2019-01-25T19:00:04.990Z,100592.38
2019-01-25T19:02:39.002Z,100594.53
2019-01-25T19:05:09.630Z,100597.58
2019-01-25T19:07:39.775Z,100593.13
2019-01-25T19:10:13.353Z,100590.03
2019-01-25T19:12:43.474Z,100587.36
2019-01-25T19:15:15.711Z,100586.53
2019-01-25T19:17:45.815Z,100576.48
2019-01-25T19:20:16.889Z,100581.75
2019-01-25T19:22:47.021Z,100574.00
2019-01-25T19:25:17.152Z,100574.45
2019-01-25T19:27:47.353Z,100573.52
2019-01-25T19:30:27.019Z,100570.42
2019-01-25T19:32:57.144Z,100572.11
2019-01-25T19:35:28.361Z,100567.74
2019-01-25T19:37:58.694Z,100563.74
2019-01-25T19:40:32.463Z,100565.52
2019-01-25T19:43:02.590Z,100561.80
2019-01-25T19:45:33.776Z,100557.52
2019-01-25T19:48:04.133Z,100553.60
2019-01-25T19:50:34.400Z,100549.20
2019-01-25T19:53:05.290Z,100544.30
2019-01-25T19:55:35.889Z,100544.70
2019-01-25T19:58:09.456Z,100544.63
2019-01-25T20:00:40.817Z,100534.89
2019-01-25T20:03:11.084Z,100542.40
2019-01-25T20:05:41.264Z,100540.22
2019-01-25T20:08:11.472Z,100532.30
2019-01-25T20:10:41.644Z,100532.38
2019-01-25T20:13:12.698Z,100528.09
2019-01-25T20:15:42.990Z,100524.48
2019-01-25T20:18:13.181Z,100524.39
2019-01-25T20:20:43.321Z,100521.22
2019-01-25T20:23:33.972Z,100516.77
2019-01-25T20:26:04.351Z,100526.45
2019-01-25T20:28:34.528Z,100517.45
2019-01-25T20:31:04.800Z,100513.86
2019-01-25T20:33:36.840Z,100512.45
2019-01-25T20:36:07.320Z,100507.95
2019-01-25T20:38:37.440Z,100505.27
2019-01-25T20:41:08.638Z,100499.09
2019-01-25T20:43:40.173Z,100499.55
2019-01-25T20:46:10.285Z,100489.95
2019-01-25T20:48:40.440Z,100489.45
2019-01-25T20:51:10.554Z,100485.85
2019-01-25T20:53:40.694Z,100478.48
2019-01-25T20:56:11.221Z,100471.30
2019-01-25T20:58:41.337Z,100477.07
2019-01-25T21:01:11.443Z,100478.48
2019-01-25T21:03:42.419Z,100475.48
2019-01-25T21:06:12.665Z,100467.66
2019-01-25T21:08:42.791Z,100472.53
2019-01-25T21:11:12.902Z,100468.66
2019-01-25T21:13:43.081Z,100466.20
2019-01-25T21:16:13.279Z,100457.64
2019-01-25T21:18:44.270Z,100463.41
2019-01-25T21:21:14.553Z,100457.36
2019-01-25T21:23:44.755Z,100460.13
2019-01-25T21:26:14.994Z,100453.67
2019-01-25T21:28:45.128Z,100456.77
2019-01-25T21:31:15.394Z,100450.22
2019-01-25T21:33:45.777Z,100451.53
2019-01-25T21:36:15.901Z,100449.30
2019-01-25T21:38:46.159Z,100446.71
2019-01-25T21:41:16.420Z,100438.39
2019-01-25T21:43:46.546Z,100435.71
2019-01-25T21:46:17.879Z,100438.34
2019-01-25T21:48:48.314Z,100436.13
2019-01-25T21:51:18.434Z,100435.22
2019-01-25T21:53:48.557Z,100429.48
2019-01-25T21:56:18.969Z,100430.36
2019-01-25T21:58:49.104Z,100431.27
2019-01-25T22:01:19.240Z,100423.35
2019-01-25T22:03:49.401Z,100426.40
2019-01-25T22:06:19.715Z,100422.45
2019-01-25T22:08:49.863Z,100417.17
2019-01-25T22:11:19.969Z,100411.98
2019-01-25T22:13:52.947Z,100411.49
2019-01-25T22:16:21.882Z,100409.80
2019-01-25T22:18:52.010Z,100404.08
2019-01-25T22:21:22.175Z,100403.67
2019-01-25T22:23:52.316Z,100398.61
2019-01-25T22:26:22.636Z,100397.25
2019-01-25T22:28:52.745Z,100395.03
2019-01-25T22:31:23.079Z,100389.67
2019-01-25T22:33:53.243Z,100382.63
2019-01-25T22:36:25.230Z,100373.31
2019-01-25T22:38:55.366Z,100377.99
2019-01-25T22:41:25.483Z,100375.75
2019-01-25T22:43:55.641Z,100367.80
2019-01-25T22:46:25.783Z,100368.16
2019-01-25T22:48:55.913Z,100362.53
2019-01-25T22:51:26.135Z,100356.84
2019-01-25T22:53:56.342Z,100356.39
2019-01-25T22:56:26.505Z,100350.66
2019-01-25T22:58:56.735Z,100349.20
2019-01-25T23:01:33.777Z,100346.06
2019-01-25T23:04:45.103Z,100345.66
2019-01-25T23:07:22.886Z,100347.02
2019-01-25T23:10:01.610Z,100342.66
2019-01-25T23:12:31.706Z,100340.62
2019-01-25T23:15:01.936Z,100340.52
2019-01-25T23:17:32.083Z,100330.53
2019-01-25T23:20:02.200Z,100330.58
2019-01-25T23:22:32.362Z,100324.13
2019-01-25T23:25:02.535Z,100326.58
2019-01-25T23:27:32.649Z,100318.53
2019-01-25T23:30:02.793Z,100322.98
2019-01-25T23:32:34.182Z,100319.44
2019-01-25T23:35:04.575Z,100317.22
2019-01-25T23:37:34.682Z,100312.08
2019-01-25T23:40:06.886Z,100310.00
2019-01-25T23:42:37.000Z,100307.69
2019-01-25T23:45:10.163Z,100306.36
2019-01-25T23:47:41.253Z,100305.49
2019-01-25T23:50:12.623Z,100298.04
2019-01-25T23:52:42.732Z,100299.77
2019-01-25T23:55:12.950Z,100296.78
2019-01-25T23:57:43.564Z,100297.28
